KBGM/BGM METAR and TAF weather

Enter ICAO airport designator
Station Type Date Time Source
KBGM METAR 2020/07/08 01:53 UTC NOAA

KBGM 080153Z AUTO 21006KT 10SM CLR 22/18 A3005 RMK AO2 SLP165 T02170183


Station Type Date Time Source
KBGM Decoded METAR 2020/07/08 01:53 UTC NOAA

BINGHAMTON REGIONAL AIRPORT, NY, United States (KBGM) 42-12N 75-59W 492M
Jul 07, 2020 - 09:53 PM EDT / 2020.07.08 0153 UTC
Wind: from the SSW (210 degrees) at 7 MPH (6 KT):0
Visibility: 10 mile(s):0
Sky conditions: clear
Temperature: 71.1 F (21.7 C)
Dew Point: 64.9 F (18.3 C)
Relative Humidity: 81%
Pressure (altimeter): 30.05 in. Hg (1017 hPa)
ob: KBGM 080153Z AUTO 21006KT 10SM CLR 22/18 A3005 RMK AO2 SLP165 T02170183
cycle: 2

Station Type Date Time Source
KBGM TAF 2020/07/07 18:30 UTC NOAA

TAF KBGM 071727Z 0718/0818 19007G15KT P6SM BKN035
FM072100 VRB04KT P6SM FEW060
TEMPO 0810/0813 BKN025
FM081600 23008KT P6SM SCT040

Example: see airport list